createdAt,value
2019-01-06T00:00:31.747Z,1030.5
2019-01-06T00:01:31.666Z,1030.5
2019-01-06T00:02:31.665Z,1030.53
2019-01-06T00:03:31.736Z,1030.59
2019-01-06T00:04:31.554Z,1030.54
2019-01-06T00:05:31.800Z,1030.62
2019-01-06T00:06:31.586Z,1030.57
2019-01-06T00:07:31.664Z,1030.6
2019-01-06T00:08:31.555Z,1030.55
2019-01-06T00:09:32.016Z,1030.57
2019-01-06T00:10:31.980Z,1030.58
2019-01-06T00:11:31.672Z,1030.56
2019-01-06T00:12:31.884Z,1030.6
2019-01-06T00:13:31.617Z,1030.61
2019-01-06T00:14:31.583Z,1030.58
2019-01-06T00:15:31.562Z,1030.54
2019-01-06T00:16:31.738Z,1030.55
2019-01-06T00:17:31.728Z,1030.56
2019-01-06T00:18:31.788Z,1030.58
2019-01-06T00:19:31.559Z,1030.57
2019-01-06T00:20:31.645Z,1030.58
2019-01-06T00:21:31.696Z,1030.53
2019-01-06T00:22:31.511Z,1030.52
2019-01-06T00:23:31.618Z,1030.56
2019-01-06T00:24:31.635Z,1030.54
2019-01-06T00:25:31.602Z,1030.53
2019-01-06T00:26:31.949Z,1030.57
2019-01-06T00:27:31.541Z,1030.59
2019-01-06T00:28:31.530Z,1030.61
2019-01-06T00:29:32.355Z,1030.57
2019-01-06T00:30:31.945Z,1030.57
2019-01-06T00:31:31.541Z,1030.65
2019-01-06T00:32:31.601Z,1030.56
2019-01-06T00:33:32.079Z,1030.59
2019-01-06T00:34:31.842Z,1030.6
2019-01-06T00:35:31.783Z,1030.6
2019-01-06T00:36:32.016Z,1030.62
2019-01-06T00:37:31.645Z,1030.63
2019-01-06T00:38:32.269Z,1030.6
2019-01-06T00:39:32.144Z,1030.62
2019-01-06T00:40:31.700Z,1030.63
2019-01-06T00:41:31.780Z,1030.62
2019-01-06T00:42:31.580Z,1030.68
2019-01-06T00:43:31.829Z,1030.67
2019-01-06T00:44:31.530Z,1030.66
2019-01-06T00:45:31.760Z,1030.66
2019-01-06T00:46:31.493Z,1030.71
2019-01-06T00:47:32.057Z,1030.7
2019-01-06T00:48:31.876Z,1030.68
2019-01-06T00:49:31.702Z,1030.78
2019-01-06T00:50:31.473Z,1030.72
2019-01-06T00:51:31.508Z,1030.73
2019-01-06T00:52:31.686Z,1030.75
2019-01-06T00:53:31.523Z,1030.7
2019-01-06T00:54:31.679Z,1030.72
2019-01-06T00:55:31.618Z,1030.76
2019-01-06T00:56:31.489Z,1030.75
2019-01-06T00:57:31.869Z,1030.74
2019-01-06T00:58:31.470Z,1030.75
2019-01-06T00:59:31.543Z,1030.75
2019-01-06T01:00:31.521Z,1030.71
2019-01-06T01:01:31.492Z,1030.75
2019-01-06T01:02:32.309Z,1030.72
2019-01-06T01:03:31.483Z,1030.74
2019-01-06T01:04:31.548Z,1030.79
2019-01-06T01:05:31.539Z,1030.84
2019-01-06T01:06:31.449Z,1030.79
2019-01-06T01:07:31.952Z,1030.79
2019-01-06T01:08:31.694Z,1030.8
2019-01-06T01:09:31.625Z,1030.78
2019-01-06T01:10:31.516Z,1030.75
2019-01-06T01:11:31.467Z,1030.8
2019-01-06T01:12:31.425Z,1030.82
2019-01-06T01:13:31.543Z,1030.8
2019-01-06T01:14:31.840Z,1030.78
2019-01-06T01:15:31.438Z,1030.84
2019-01-06T01:16:31.428Z,1030.81
2019-01-06T01:17:31.559Z,1030.79
2019-01-06T01:18:31.476Z,1030.81
2019-01-06T01:19:31.433Z,1030.85
2019-01-06T01:20:31.439Z,1030.82
2019-01-06T01:21:31.447Z,1030.79
2019-01-06T01:22:31.511Z,1030.85
2019-01-06T01:23:31.451Z,1030.81
2019-01-06T01:24:31.703Z,1030.81
2019-01-06T01:25:31.535Z,1030.83
2019-01-06T01:26:31.510Z,1030.83
2019-01-06T01:27:31.558Z,1030.87
2019-01-06T01:28:31.653Z,1030.87
2019-01-06T01:29:31.544Z,1030.93
2019-01-06T01:30:31.489Z,1030.91
2019-01-06T01:31:31.607Z,1030.91
2019-01-06T01:32:31.562Z,1030.99
2019-01-06T01:33:31.432Z,1031.03
2019-01-06T01:34:31.458Z,1030.97
2019-01-06T01:35:31.419Z,1031.02
2019-01-06T01:36:31.500Z,1031.01
2019-01-06T01:37:31.823Z,1031.03
2019-01-06T01:38:31.513Z,1031.1
2019-01-06T01:39:31.413Z,1031.09
2019-01-06T01:40:32.263Z,1031.09
2019-01-06T01:41:31.970Z,1031.07
2019-01-06T01:42:31.623Z,1031.1
2019-01-06T01:43:31.455Z,1031.1
2019-01-06T01:44:31.496Z,1031.1
2019-01-06T01:45:31.408Z,1031.07
2019-01-06T01:46:31.558Z,1031.12
2019-01-06T01:47:31.524Z,1031.09
2019-01-06T01:48:31.428Z,1031.06
2019-01-06T01:49:31.582Z,1031.08
2019-01-06T01:50:31.657Z,1031.07
2019-01-06T01:51:31.634Z,1031.07
2019-01-06T01:52:31.844Z,1031.05
2019-01-06T01:53:31.385Z,1031.07
2019-01-06T01:54:31.582Z,1031.06
2019-01-06T01:55:31.419Z,1031.09
2019-01-06T01:56:31.779Z,1031.06
2019-01-06T01:57:31.449Z,1031.09
2019-01-06T01:58:31.726Z,1031.06
2019-01-06T01:59:31.501Z,1031.02
2019-01-06T02:00:31.679Z,1031.08
2019-01-06T02:01:31.466Z,1031.04
2019-01-06T02:02:31.753Z,1031.04
2019-01-06T02:03:31.926Z,1030.99
2019-01-06T02:04:31.401Z,1031
2019-01-06T02:05:31.587Z,1030.99
2019-01-06T02:06:31.515Z,1030.98
2019-01-06T02:07:31.629Z,1030.94
2019-01-06T02:08:31.506Z,1030.97
2019-01-06T02:09:31.450Z,1030.96
2019-01-06T02:10:31.355Z,1030.96
2019-01-06T02:11:31.577Z,1030.93
2019-01-06T02:12:31.556Z,1030.98
2019-01-06T02:13:31.459Z,1030.96
2019-01-06T02:14:31.521Z,1030.94
2019-01-06T02:15:31.411Z,1031
2019-01-06T02:16:31.560Z,1030.92
2019-01-06T02:17:31.386Z,1031
2019-01-06T02:18:31.763Z,1031
2019-01-06T02:19:31.375Z,1030.95
2019-01-06T02:20:32.203Z,1030.97
2019-01-06T02:21:31.415Z,1031.03
2019-01-06T02:22:31.394Z,1030.98
2019-01-06T02:23:31.680Z,1030.97
2019-01-06T02:24:32.103Z,1030.99
2019-01-06T02:25:31.506Z,1031.03
2019-01-06T02:26:31.861Z,1031.04
2019-01-06T02:27:31.374Z,1031.02
2019-01-06T02:28:31.495Z,1030.98
2019-01-06T02:29:32.183Z,1031.02
2019-01-06T02:30:31.439Z,1031
2019-01-06T02:31:31.490Z,1031.03
2019-01-06T02:32:31.455Z,1030.99
2019-01-06T02:33:31.359Z,1031.06
2019-01-06T02:34:31.858Z,1031.02
2019-01-06T02:35:31.675Z,1031.01
2019-01-06T02:36:31.504Z,1030.98
2019-01-06T02:37:31.435Z,1030.99
2019-01-06T02:38:31.353Z,1031
2019-01-06T02:39:31.343Z,1031.04
2019-01-06T02:40:31.355Z,1031.01
2019-01-06T02:41:31.326Z,1031.02
2019-01-06T02:42:31.951Z,1030.98
2019-01-06T02:43:31.360Z,1030.95
2019-01-06T02:44:31.600Z,1031.01
2019-01-06T02:45:32.186Z,1031.04
2019-01-06T02:46:31.465Z,1031.06
2019-01-06T02:47:31.554Z,1031.06
2019-01-06T02:48:31.681Z,1031.01
2019-01-06T02:49:31.366Z,1031.03
2019-01-06T02:50:31.544Z,1031.03
2019-01-06T02:51:31.429Z,1031.04
2019-01-06T02:52:31.467Z,1030.98
2019-01-06T02:53:31.400Z,1031.04
2019-01-06T02:54:31.317Z,1030.97
2019-01-06T02:55:31.426Z,1030.96
2019-01-06T02:56:31.434Z,1030.95
2019-01-06T02:57:31.992Z,1030.93
2019-01-06T02:58:31.367Z,1030.96
2019-01-06T02:59:31.320Z,1030.88
2019-01-06T03:00:31.400Z,1030.91
2019-01-06T03:01:31.679Z,1030.96
2019-01-06T03:02:31.392Z,1030.92
2019-01-06T03:03:31.399Z,1030.88
2019-01-06T03:04:31.330Z,1030.92
2019-01-06T03:05:31.431Z,1030.86
2019-01-06T03:06:31.305Z,1030.89
2019-01-06T03:07:31.393Z,1030.88
2019-01-06T03:08:31.312Z,1030.93
2019-01-06T03:09:31.384Z,1030.94
2019-01-06T03:10:31.345Z,1030.9
2019-01-06T03:11:31.473Z,1030.93
2019-01-06T03:12:31.305Z,1030.84
2019-01-06T03:13:31.391Z,1030.82
2019-01-06T03:14:31.301Z,1030.81
2019-01-06T03:15:31.308Z,1030.85
2019-01-06T03:16:31.289Z,1030.86
2019-01-06T03:17:31.355Z,1030.85
2019-01-06T03:18:31.290Z,1030.86
2019-01-06T03:19:31.289Z,1030.84
2019-01-06T03:20:31.370Z,1030.83
2019-01-06T03:21:31.532Z,1030.8
2019-01-06T03:22:31.310Z,1030.77
2019-01-06T03:23:31.507Z,1030.8
2019-01-06T03:24:31.495Z,1030.77
2019-01-06T03:25:31.399Z,1030.76
2019-01-06T03:26:31.668Z,1030.74
2019-01-06T03:27:31.401Z,1030.72
2019-01-06T03:28:31.383Z,1030.69
2019-01-06T03:29:31.641Z,1030.71
2019-01-06T03:30:31.471Z,1030.73
2019-01-06T03:31:31.378Z,1030.69
2019-01-06T03:32:31.957Z,1030.71
2019-01-06T03:33:31.288Z,1030.65
2019-01-06T03:34:31.489Z,1030.68
2019-01-06T03:35:31.488Z,1030.62
2019-01-06T03:36:31.422Z,1030.67
2019-01-06T03:37:31.732Z,1030.66
2019-01-06T03:38:31.474Z,1030.64
2019-01-06T03:39:31.672Z,1030.6
2019-01-06T03:40:31.492Z,1030.59
2019-01-06T03:41:31.578Z,1030.59
2019-01-06T03:42:31.458Z,1030.64
2019-01-06T03:43:31.388Z,1030.6
2019-01-06T03:44:31.497Z,1030.59
2019-01-06T03:45:31.505Z,1030.6
2019-01-06T03:46:31.578Z,1030.58
2019-01-06T03:47:31.295Z,1030.59
2019-01-06T03:48:31.587Z,1030.56
2019-01-06T03:49:31.254Z,1030.55
2019-01-06T03:50:31.251Z,1030.57
2019-01-06T03:51:31.625Z,1030.55
2019-01-06T03:52:31.347Z,1030.63
2019-01-06T03:53:31.636Z,1030.6
2019-01-06T03:54:31.305Z,1030.62
2019-01-06T03:55:31.434Z,1030.65
2019-01-06T03:56:32.096Z,1030.71
2019-01-06T03:57:31.527Z,1030.68
2019-01-06T03:58:31.629Z,1030.7
2019-01-06T03:59:31.504Z,1030.71
2019-01-06T04:00:31.419Z,1030.67
2019-01-06T04:01:31.310Z,1030.7
2019-01-06T04:02:31.255Z,1030.69
2019-01-06T04:03:31.408Z,1030.69
2019-01-06T04:04:31.291Z,1030.71
2019-01-06T04:05:31.407Z,1030.76
2019-01-06T04:06:31.359Z,1030.71
2019-01-06T04:07:31.230Z,1030.72
2019-01-06T04:08:31.260Z,1030.75
2019-01-06T04:09:31.634Z,1030.75
2019-01-06T04:10:32.067Z,1030.72
2019-01-06T04:11:31.630Z,1030.75
2019-01-06T04:12:31.437Z,1030.65
2019-01-06T04:13:31.563Z,1030.67
2019-01-06T04:14:31.387Z,1030.67
2019-01-06T04:15:32.144Z,1030.66
2019-01-06T04:16:31.358Z,1030.64
2019-01-06T04:17:31.464Z,1030.69
2019-01-06T04:18:31.308Z,1030.65
2019-01-06T04:19:31.314Z,1030.65
2019-01-06T04:20:31.407Z,1030.64
2019-01-06T04:21:31.344Z,1030.64
2019-01-06T04:22:31.559Z,1030.65
2019-01-06T04:23:31.220Z,1030.63
2019-01-06T04:24:31.260Z,1030.67
2019-01-06T04:25:31.365Z,1030.68
2019-01-06T04:26:31.348Z,1030.68
2019-01-06T04:27:31.201Z,1030.7
2019-01-06T04:28:31.507Z,1030.68
2019-01-06T04:29:31.238Z,1030.7
2019-01-06T04:30:31.315Z,1030.71
2019-01-06T04:31:31.584Z,1030.68
2019-01-06T04:32:31.774Z,1030.64
2019-01-06T04:33:31.540Z,1030.63
2019-01-06T04:34:31.565Z,1030.63
2019-01-06T04:35:31.475Z,1030.63
2019-01-06T04:36:31.191Z,1030.68
2019-01-06T04:37:31.323Z,1030.61
2019-01-06T04:38:31.345Z,1030.61
2019-01-06T04:39:31.232Z,1030.67
2019-01-06T04:40:31.219Z,1030.61
2019-01-06T04:41:31.189Z,1030.62
2019-01-06T04:42:31.319Z,1030.62
2019-01-06T04:43:31.198Z,1030.65
2019-01-06T04:44:31.239Z,1030.62
2019-01-06T04:45:31.280Z,1030.61
2019-01-06T04:46:31.320Z,1030.62
2019-01-06T04:47:31.440Z,1030.61
2019-01-06T04:48:31.271Z,1030.65
2019-01-06T04:49:31.364Z,1030.65
2019-01-06T04:50:31.154Z,1030.65
2019-01-06T04:51:31.286Z,1030.66
2019-01-06T04:52:31.409Z,1030.63
2019-01-06T04:53:31.337Z,1030.64
2019-01-06T04:54:31.281Z,1030.64
2019-01-06T04:55:31.267Z,1030.67
2019-01-06T04:56:31.168Z,1030.66
2019-01-06T04:57:31.174Z,1030.67
2019-01-06T04:58:31.264Z,1030.69
2019-01-06T04:59:31.543Z,1030.64
2019-01-06T05:00:31.216Z,1030.68
2019-01-06T05:01:32.008Z,1030.64
2019-01-06T05:02:31.275Z,1030.61
2019-01-06T05:03:31.492Z,1030.66
2019-01-06T05:04:31.604Z,1030.65
2019-01-06T05:05:31.174Z,1030.65
2019-01-06T05:06:31.363Z,1030.66
2019-01-06T05:07:31.249Z,1030.65
2019-01-06T05:08:31.271Z,1030.64
2019-01-06T05:09:31.392Z,1030.68
2019-01-06T05:10:31.294Z,1030.68
2019-01-06T05:11:31.223Z,1030.66
2019-01-06T05:12:31.558Z,1030.62
2019-01-06T05:13:31.418Z,1030.66
2019-01-06T05:14:31.301Z,1030.66
2019-01-06T05:15:31.371Z,1030.62
2019-01-06T05:16:31.957Z,1030.58
2019-01-06T05:17:31.139Z,1030.62
2019-01-06T05:18:31.287Z,1030.61
2019-01-06T05:19:31.359Z,1030.61
2019-01-06T05:20:31.204Z,1030.63
2019-01-06T05:21:31.347Z,1030.57
2019-01-06T05:22:31.316Z,1030.63
2019-01-06T05:23:31.259Z,1030.64
2019-01-06T05:24:31.231Z,1030.63
2019-01-06T05:25:31.387Z,1030.67
2019-01-06T05:26:31.794Z,1030.7
2019-01-06T05:27:31.627Z,1030.68
2019-01-06T05:28:31.621Z,1030.71
2019-01-06T05:29:31.533Z,1030.74
2019-01-06T05:30:31.336Z,1030.78
2019-01-06T05:31:31.240Z,1030.77
2019-01-06T05:32:31.528Z,1030.8
2019-01-06T05:33:31.129Z,1030.78
2019-01-06T05:34:31.256Z,1030.73
2019-01-06T05:35:31.327Z,1030.84
2019-01-06T05:36:31.952Z,1030.8
2019-01-06T05:37:31.182Z,1030.79
2019-01-06T05:38:31.602Z,1030.8
2019-01-06T05:39:31.341Z,1030.79
2019-01-06T05:40:31.227Z,1030.79
2019-01-06T05:41:31.472Z,1030.76
2019-01-06T05:42:31.355Z,1030.78
2019-01-06T05:43:31.501Z,1030.81
2019-01-06T05:44:31.237Z,1030.75
2019-01-06T05:45:31.360Z,1030.75
2019-01-06T05:46:31.301Z,1030.76
2019-01-06T05:47:31.143Z,1030.82
2019-01-06T05:48:31.419Z,1030.78
2019-01-06T05:49:31.185Z,1030.81
2019-01-06T05:50:31.090Z,1030.81
2019-01-06T05:51:31.170Z,1030.81
2019-01-06T05:52:31.749Z,1030.76
2019-01-06T05:53:31.144Z,1030.79
2019-01-06T05:54:31.156Z,1030.77
2019-01-06T05:55:31.098Z,1030.79
2019-01-06T05:56:31.267Z,1030.78
2019-01-06T05:57:31.134Z,1030.74
2019-01-06T05:58:31.330Z,1030.73
2019-01-06T05:59:31.105Z,1030.76
2019-01-06T06:00:31.133Z,1030.77
2019-01-06T06:01:31.102Z,1030.77
2019-01-06T06:02:31.072Z,1030.77
2019-01-06T06:03:31.230Z,1030.77
2019-01-06T06:04:31.136Z,1030.76
2019-01-06T06:05:31.197Z,1030.77
2019-01-06T06:06:31.333Z,1030.78
2019-01-06T06:07:31.207Z,1030.74
2019-01-06T06:08:31.127Z,1030.73
2019-01-06T06:09:31.149Z,1030.75
2019-01-06T06:10:31.279Z,1030.7
2019-01-06T06:11:31.098Z,1030.75
2019-01-06T06:12:31.045Z,1030.73
2019-01-06T06:13:31.155Z,1030.74
2019-01-06T06:14:31.164Z,1030.72
2019-01-06T06:15:31.113Z,1030.7
2019-01-06T06:16:31.275Z,1030.73
2019-01-06T06:17:31.086Z,1030.76
2019-01-06T06:18:31.248Z,1030.74
2019-01-06T06:19:31.033Z,1030.75
2019-01-06T06:20:31.083Z,1030.79
2019-01-06T06:21:31.052Z,1030.79
2019-01-06T06:22:31.085Z,1030.78
2019-01-06T06:23:31.089Z,1030.78
2019-01-06T06:24:31.099Z,1030.8
2019-01-06T06:25:31.033Z,1030.78
2019-01-06T06:26:31.081Z,1030.78
2019-01-06T06:27:31.121Z,1030.77
2019-01-06T06:28:31.154Z,1030.79
2019-01-06T06:29:31.110Z,1030.82
2019-01-06T06:30:32.743Z,1030.78
2019-01-06T06:31:31.136Z,1030.81
2019-01-06T06:32:31.373Z,1030.78
2019-01-06T06:33:31.075Z,1030.8
2019-01-06T06:34:31.042Z,1030.82
2019-01-06T06:35:31.043Z,1030.85
2019-01-06T06:36:31.043Z,1030.82
2019-01-06T06:37:31.079Z,1030.85
2019-01-06T06:38:31.047Z,1030.9
2019-01-06T06:39:31.118Z,1030.85
2019-01-06T06:40:31.185Z,1030.87
2019-01-06T06:41:31.255Z,1030.89
2019-01-06T06:42:31.029Z,1030.97
2019-01-06T06:43:31.298Z,1030.95
2019-01-06T06:44:31.395Z,1031.02
2019-01-06T06:45:31.260Z,1030.98
2019-01-06T06:46:31.012Z,1030.99
2019-01-06T06:47:31.761Z,1031.07
2019-01-06T06:48:31.198Z,1031.03
2019-01-06T06:49:31.082Z,1031.01
2019-01-06T06:50:31.065Z,1031.07
2019-01-06T06:51:31.152Z,1031.02
2019-01-06T06:52:31.122Z,1031.08
2019-01-06T06:53:31.497Z,1031.08
2019-01-06T06:54:31.274Z,1031.06
2019-01-06T06:55:31.142Z,1031.08
2019-01-06T06:56:31.051Z,1031.08
2019-01-06T06:57:31.315Z,1031.15
2019-01-06T06:58:31.153Z,1031.18
2019-01-06T06:59:31.073Z,1031.15
2019-01-06T07:00:31.118Z,1031.15
2019-01-06T07:01:31.224Z,1031.19
2019-01-06T07:02:31.093Z,1031.17
2019-01-06T07:03:31.237Z,1031.15
2019-01-06T07:04:31.203Z,1031.21
2019-01-06T07:05:30.994Z,1031.18
2019-01-06T07:06:31.134Z,1031.18
2019-01-06T07:07:31.025Z,1031.21
2019-01-06T07:08:31.229Z,1031.23
2019-01-06T07:09:31.177Z,1031.21
2019-01-06T07:10:31.060Z,1031.2
2019-01-06T07:11:31.494Z,1031.23
2019-01-06T07:12:31.109Z,1031.24
2019-01-06T07:13:31.170Z,1031.3
2019-01-06T07:14:31.129Z,1031.27
2019-01-06T07:15:31.082Z,1031.32
2019-01-06T07:16:31.222Z,1031.29
2019-01-06T07:17:31.824Z,1031.29
2019-01-06T07:18:31.190Z,1031.31
2019-01-06T07:19:31.139Z,1031.31
2019-01-06T07:20:31.026Z,1031.34
2019-01-06T07:21:31.238Z,1031.39
2019-01-06T07:22:31.262Z,1031.43
2019-01-06T07:23:31.528Z,1031.39
2019-01-06T07:24:31.377Z,1031.38
2019-01-06T07:25:31.029Z,1031.4
2019-01-06T07:26:31.036Z,1031.43
2019-01-06T07:27:31.144Z,1031.45
2019-01-06T07:28:31.816Z,1031.44
2019-01-06T07:29:30.969Z,1031.43
2019-01-06T07:30:31.141Z,1031.48
2019-01-06T07:31:30.985Z,1031.55
2019-01-06T07:32:31.023Z,1031.55
2019-01-06T07:33:31.093Z,1031.55
2019-01-06T07:34:31.123Z,1031.58
2019-01-06T07:35:31.273Z,1031.55
2019-01-06T07:36:30.952Z,1031.57
2019-01-06T07:37:31.232Z,1031.6
2019-01-06T07:38:31.115Z,1031.57
2019-01-06T07:39:31.308Z,1031.57
2019-01-06T07:40:31.133Z,1031.66
2019-01-06T07:41:31.090Z,1031.59
2019-01-06T07:42:31.151Z,1031.56
2019-01-06T07:43:30.937Z,1031.61
2019-01-06T07:44:31.794Z,1031.63
2019-01-06T07:45:30.996Z,1031.56
2019-01-06T07:46:31.075Z,1031.6
2019-01-06T07:47:31.077Z,1031.59
2019-01-06T07:48:31.135Z,1031.58
2019-01-06T07:49:30.937Z,1031.62
2019-01-06T07:50:31.170Z,1031.62
2019-01-06T07:51:31.857Z,1031.6
2019-01-06T07:52:31.119Z,1031.61
2019-01-06T07:53:30.932Z,1031.62
2019-01-06T07:54:31.400Z,1031.65
2019-01-06T07:55:31.004Z,1031.66
2019-01-06T07:56:31.004Z,1031.73
2019-01-06T07:57:31.028Z,1031.7
2019-01-06T07:58:31.018Z,1031.71
2019-01-06T07:59:31.027Z,1031.77
2019-01-06T08:00:31.346Z,1031.76
2019-01-06T08:01:30.963Z,1031.78
2019-01-06T08:02:31.331Z,1031.8
2019-01-06T08:03:30.963Z,1031.8
2019-01-06T08:04:31.682Z,1031.77
2019-01-06T08:05:31.031Z,1031.85
2019-01-06T08:06:30.977Z,1031.84
2019-01-06T08:07:31.002Z,1031.85
2019-01-06T08:08:31.017Z,1031.88
2019-01-06T08:09:31.073Z,1031.89
2019-01-06T08:10:31.071Z,1031.8
2019-01-06T08:11:31.042Z,1031.84
2019-01-06T08:12:30.993Z,1031.91
2019-01-06T08:13:31.030Z,1031.88
2019-01-06T08:14:31.077Z,1031.91
2019-01-06T08:15:30.943Z,1031.96
2019-01-06T08:16:31.047Z,1032.02
2019-01-06T08:17:31.010Z,1031.97
2019-01-06T08:18:31.133Z,1031.99
2019-01-06T08:19:31.005Z,1031.97
2019-01-06T08:20:33.007Z,1032.03
2019-01-06T08:21:30.982Z,1032.05
2019-01-06T08:22:31.288Z,1032.09
2019-01-06T08:23:30.952Z,1032.09
2019-01-06T08:24:31.353Z,1032.07
2019-01-06T08:25:31.527Z,1032.07
2019-01-06T08:26:31.036Z,1032.09
2019-01-06T08:27:31.674Z,1032.12
2019-01-06T08:28:31.173Z,1032.13
2019-01-06T08:29:31.401Z,1032.12
2019-01-06T08:30:31.100Z,1032.12
2019-01-06T08:31:30.993Z,1032.13
2019-01-06T08:32:30.968Z,1032.12
2019-01-06T08:33:31.118Z,1032.13
2019-01-06T08:34:31.074Z,1032.19
2019-01-06T08:35:30.862Z,1032.14
2019-01-06T08:36:30.992Z,1032.13
2019-01-06T08:37:31.737Z,1032.2
2019-01-06T08:38:30.990Z,1032.15
2019-01-06T08:39:31.009Z,1032.18
2019-01-06T08:40:31.187Z,1032.2
2019-01-06T08:41:31.124Z,1032.18
2019-01-06T08:42:30.978Z,1032.22
2019-01-06T08:43:30.988Z,1032.2
2019-01-06T08:44:30.961Z,1032.22
2019-01-06T08:45:31.040Z,1032.17
2019-01-06T08:46:31.113Z,1032.23
2019-01-06T08:47:30.910Z,1032.2
2019-01-06T08:48:31.708Z,1032.18
2019-01-06T08:49:30.970Z,1032.19
2019-01-06T08:50:31.190Z,1032.21
2019-01-06T08:51:31.047Z,1032.21
2019-01-06T08:52:31.094Z,1032.24
2019-01-06T08:53:30.977Z,1032.18
2019-01-06T08:54:31.238Z,1032.2
2019-01-06T08:55:31.311Z,1032.17
2019-01-06T08:56:32.616Z,1032.15
2019-01-06T08:57:30.898Z,1032.18
2019-01-06T08:58:31.007Z,1032.13
2019-01-06T08:59:31.119Z,1032.15
2019-01-06T09:00:31.073Z,1032.12
2019-01-06T09:01:31.178Z,1032.11
2019-01-06T09:02:30.933Z,1032.11
2019-01-06T09:03:31.275Z,1032.16
2019-01-06T09:04:31.688Z,1032.16
2019-01-06T09:05:31.110Z,1032.17
2019-01-06T09:06:31.065Z,1032.2
2019-01-06T09:07:30.866Z,1032.2
2019-01-06T09:08:31.367Z,1032.2
2019-01-06T09:09:31.082Z,1032.19
2019-01-06T09:10:31.215Z,1032.21
2019-01-06T09:11:31.112Z,1032.21
2019-01-06T09:12:31.152Z,1032.26
2019-01-06T09:13:31.112Z,1032.26
2019-01-06T09:14:31.060Z,1032.25
2019-01-06T09:15:31.183Z,1032.26
2019-01-06T09:16:30.951Z,1032.26
2019-01-06T09:17:31.134Z,1032.27
2019-01-06T09:18:30.854Z,1032.27
2019-01-06T09:19:31.175Z,1032.31
2019-01-06T09:20:30.933Z,1032.27
2019-01-06T09:21:30.959Z,1032.27
2019-01-06T09:22:30.778Z,1032.31
2019-01-06T09:23:31.141Z,1032.33
2019-01-06T09:24:31.035Z,1032.35
2019-01-06T09:25:31.105Z,1032.4
2019-01-06T09:26:30.971Z,1032.36
2019-01-06T09:27:31.127Z,1032.36
2019-01-06T09:28:31.284Z,1032.34
2019-01-06T09:29:32.567Z,1032.35
2019-01-06T09:30:31.250Z,1032.39
2019-01-06T09:31:30.995Z,1032.37
2019-01-06T09:32:30.830Z,1032.35
2019-01-06T09:33:31.298Z,1032.4
2019-01-06T09:34:30.839Z,1032.38
2019-01-06T09:35:31.292Z,1032.4
2019-01-06T09:36:31.114Z,1032.42
2019-01-06T09:37:31.066Z,1032.38
2019-01-06T09:38:31.044Z,1032.36
2019-01-06T09:39:30.979Z,1032.33
2019-01-06T09:40:31.195Z,1032.36
2019-01-06T09:41:30.920Z,1032.39
2019-01-06T09:42:31.123Z,1032.36
2019-01-06T09:43:30.829Z,1032.37
2019-01-06T09:44:31.121Z,1032.41
2019-01-06T09:45:31.172Z,1032.38
2019-01-06T09:46:36.479Z,1032.38
2019-01-06T09:47:30.968Z,1032.39
2019-01-06T09:48:31.042Z,1032.35
2019-01-06T09:49:30.952Z,1032.27
2019-01-06T09:50:30.997Z,1032.35
2019-01-06T09:51:31.042Z,1032.31
2019-01-06T09:52:30.917Z,1032.37
2019-01-06T09:53:30.997Z,1032.31
2019-01-06T09:54:31.006Z,1032.39
2019-01-06T09:55:30.812Z,1032.32
2019-01-06T09:56:30.796Z,1032.33
2019-01-06T09:57:30.863Z,1032.36
2019-01-06T09:58:31.014Z,1032.33
2019-01-06T09:59:31.330Z,1032.37
2019-01-06T10:00:30.797Z,1032.34
2019-01-06T10:01:30.909Z,1032.37
2019-01-06T10:02:32.212Z,1032.35
2019-01-06T10:03:30.821Z,1032.32
2019-01-06T10:04:35.381Z,1032.3
2019-01-06T10:05:30.804Z,1032.27
2019-01-06T10:06:31.183Z,1032.3
2019-01-06T10:07:30.998Z,1032.3
2019-01-06T10:08:31.083Z,1032.26
2019-01-06T10:09:31.282Z,1032.32
2019-01-06T10:10:30.974Z,1032.32
2019-01-06T10:11:30.915Z,1032.31
2019-01-06T10:12:30.858Z,1032.31
2019-01-06T10:13:30.826Z,1032.32
2019-01-06T10:14:31.034Z,1032.32
2019-01-06T10:15:30.926Z,1032.31
2019-01-06T10:16:30.775Z,1032.29
2019-01-06T10:17:31.061Z,1032.34
2019-01-06T10:18:31.146Z,1032.29
2019-01-06T10:19:30.765Z,1032.33
2019-01-06T10:20:30.913Z,1032.36
2019-01-06T10:21:30.948Z,1032.39
2019-01-06T10:22:31.020Z,1032.34
2019-01-06T10:23:31.782Z,1032.37
2019-01-06T10:24:31.153Z,1032.36
2019-01-06T10:25:31.327Z,1032.32
2019-01-06T10:26:31.048Z,1032.31
2019-01-06T10:27:31.605Z,1032.31
2019-01-06T10:28:30.979Z,1032.37
2019-01-06T10:29:30.923Z,1032.39
2019-01-06T10:30:31.116Z,1032.35
2019-01-06T10:31:31.162Z,1032.42
2019-01-06T10:32:30.822Z,1032.37
2019-01-06T10:33:30.893Z,1032.38
2019-01-06T10:34:30.886Z,1032.34
2019-01-06T10:35:32.013Z,1032.37
2019-01-06T10:36:31.070Z,1032.38
2019-01-06T10:37:30.752Z,1032.32
2019-01-06T10:38:31.192Z,1032.36
2019-01-06T10:39:31.092Z,1032.33
2019-01-06T10:40:30.995Z,1032.3
2019-01-06T10:41:31.582Z,1032.33
2019-01-06T10:42:30.719Z,1032.3
2019-01-06T10:43:30.979Z,1032.35
2019-01-06T10:44:31.109Z,1032.35
2019-01-06T10:45:30.927Z,1032.31
2019-01-06T10:46:31.099Z,1032.33
2019-01-06T10:47:30.700Z,1032.34
2019-01-06T10:48:31.027Z,1032.32
2019-01-06T10:49:30.813Z,1032.34
2019-01-06T10:50:30.905Z,1032.37
2019-01-06T10:51:30.913Z,1032.34
2019-01-06T10:52:30.665Z,1032.36
2019-01-06T10:53:31.145Z,1032.38
2019-01-06T10:54:30.871Z,1032.34
2019-01-06T10:55:30.886Z,1032.34
2019-01-06T10:56:31.107Z,1032.36
2019-01-06T10:57:30.826Z,1032.38
2019-01-06T10:58:31.139Z,1032.38
2019-01-06T10:59:30.828Z,1032.33
2019-01-06T11:00:30.910Z,1032.39
2019-01-06T11:01:32.465Z,1032.38
2019-01-06T11:02:33.465Z,1032.31
2019-01-06T11:03:33.711Z,1032.39
2019-01-06T11:04:32.461Z,1032.37
2019-01-06T11:05:37.790Z,1032.36
2019-01-06T11:06:35.815Z,1032.35
2019-01-06T11:07:31.823Z,1032.38
2019-01-06T11:08:32.142Z,1032.38
2019-01-06T11:09:32.586Z,1032.38
2019-01-06T11:10:32.470Z,1032.37
2019-01-06T11:11:32.622Z,1032.36
2019-01-06T11:12:33.368Z,1032.36
2019-01-06T11:13:39.424Z,1032.33
2019-01-06T11:14:41.356Z,1032.38
2019-01-06T11:16:43.426Z,1032.36
2019-01-06T11:18:33.477Z,1032.34
2019-01-06T11:19:38.008Z,1032.34
2019-01-06T11:20:38.698Z,1032.34
2019-01-06T11:21:43.826Z,1032.35
2019-01-06T11:22:38.796Z,1032.36
2019-01-06T11:23:35.394Z,1032.31
2019-01-06T11:24:37.497Z,1032.31
2019-01-06T11:25:42.260Z,1032.35
2019-01-06T11:26:35.964Z,1032.29
2019-01-06T11:27:57.549Z,1032.31
2019-01-06T11:28:37.493Z,1032.32
2019-01-06T11:30:37.022Z,1032.27
2019-01-06T11:31:39.760Z,1032.26
2019-01-06T11:33:33.763Z,1032.33
2019-01-06T11:37:55.402Z,1032.27
2019-01-06T11:38:33.996Z,1032.29
2019-01-06T11:39:48.955Z,1032.24
2019-01-06T11:40:41.569Z,1032.25
2019-01-06T11:41:36.389Z,1032.24
2019-01-06T11:42:36.261Z,1032.23
2019-01-06T11:43:34.288Z,1032.2
2019-01-06T11:44:32.930Z,1032.22
2019-01-06T11:46:47.941Z,1032.2
2019-01-06T11:47:52.179Z,1032.24
2019-01-06T11:48:45.925Z,1032.22
2019-01-06T11:48:49.935Z,1032.21
2019-01-06T11:49:46.825Z,1032.21
2019-01-06T11:50:45.581Z,1032.24
2019-01-06T11:51:47.283Z,1032.23
2019-01-06T11:52:45.356Z,1032.21
2019-01-06T11:53:49.689Z,1032.18
2019-01-06T11:55:49.272Z,1032.21
2019-01-06T11:56:49.630Z,1032.19
2019-01-06T11:58:58.256Z,1032.19
2019-01-06T12:00:12.392Z,1032.23
2019-01-06T12:00:59.737Z,1032.2
2019-01-06T12:01:58.548Z,1032.2
2019-01-06T12:02:59.548Z,1032.19
2019-01-06T12:05:02.013Z,1032.22
2019-01-06T12:06:05.683Z,1032.2
2019-01-06T12:07:02.498Z,1032.2
2019-01-06T12:08:06.432Z,1032.21
2019-01-06T12:08:57.980Z,1032.23
2019-01-06T12:09:58.262Z,1032.21
2019-01-06T12:10:57.747Z,1032.18
2019-01-06T12:11:57.823Z,1032.24
2019-01-06T12:12:57.760Z,1032.19
2019-01-06T12:13:58.622Z,1032.18
2019-01-06T12:14:57.353Z,1032.19
2019-01-06T12:15:57.458Z,1032.2
2019-01-06T12:16:57.394Z,1032.22
2019-01-06T12:17:57.566Z,1032.28
2019-01-06T12:18:57.446Z,1032.24